Time;durP1;ratioP1;P1;durP2;ratioP2;P2;SDS_P1;SDS_P2;PMS_P1;PMS_P2;Temp;Humidity;BMP_temperature;BMP_pressure;BME280_temperature;BME280_humidity;BME280_pressure;Samples;Min_cycle;Max_cycle;Signal;HPM_P1;HPM_P2
2024/01/18 00:02:16;;;;;;;1.83;1.00;;;;;;;6.17;100.00;152944.63;4984311;28;20465;-78
2024/01/18 00:04:42;;;;;;;2.07;1.07;;;;;;;6.09;100.00;152925.22;4986470;28;20449;-78
2024/01/18 00:07:09;;;;;;;1.67;0.90;;;;;;;6.26;100.00;152967.81;4984611;28;20896;-77
2024/01/18 00:09:35;;;;;;;1.80;1.20;;;;;;;6.27;100.00;152970.41;4982705;28;20992;-77
2024/01/18 00:12:02;;;;;;;1.37;1.27;;;;;;;6.25;100.00;152965.28;4983909;28;20969;-77
2024/01/18 00:14:28;;;;;;;1.30;0.97;;;;;;;6.19;100.00;152951.06;4984070;28;20468;-77
2024/01/18 00:16:56;;;;;;;1.63;1.10;;;;;;;6.18;100.00;152947.19;4982277;28;20462;-77
2024/01/18 00:19:23;;;;;;;2.30;1.20;;;;;;;6.25;100.00;152965.28;4993760;28;20505;-77
2024/01/18 00:21:49;;;;;;;1.40;1.10;;;;;;;6.21;100.00;152954.94;4987296;28;20448;-77
2024/01/18 00:24:16;;;;;;;1.30;1.10;;;;;;;6.15;100.00;152940.72;4984740;28;20470;-77
2024/01/18 00:26:42;;;;;;;1.40;0.90;;;;;;;6.05;100.00;152914.94;4980219;28;20859;-77
2024/01/18 00:29:09;;;;;;;2.07;1.30;;;;;;;6.03;100.00;152911.09;4980178;28;20480;-77
2024/01/18 00:31:35;;;;;;;2.67;1.20;;;;;;;5.98;100.00;152898.16;4987365;28;20441;-77
2024/01/18 00:34:03;;;;;;;2.10;1.33;;;;;;;6.04;100.00;152913.63;4997496;28;20462;-77
2024/01/18 00:36:29;;;;;;;2.20;1.50;;;;;;;6.04;100.00;152913.63;4987677;28;20504;-77
2024/01/18 00:38:56;;;;;;;1.50;1.03;;;;;;;6.12;100.00;152932.97;4981532;28;20465;-77
2024/01/18 00:41:22;;;;;;;1.60;1.40;;;;;;;6.08;100.00;152923.97;4997866;28;20483;-77
2024/01/18 00:43:49;;;;;;;1.50;1.20;;;;;;;6.14;100.00;152938.19;5019163;28;20467;-77
2024/01/18 00:46:18;;;;;;;1.80;1.30;;;;;;;6.12;100.00;152934.28;5006048;28;20449;-77
2024/01/18 00:48:45;;;;;;;2.07;1.40;;;;;;;6.09;100.00;152926.53;5008803;28;20447;-77
2024/01/18 00:51:13;;;;;;;1.87;1.20;;;;;;;6.10;100.00;152929.13;5020921;28;20799;-77
2024/01/18 00:53:39;;;;;;;1.87;1.33;;;;;;;6.13;100.00;152935.59;5020708;28;20513;-78
2024/01/18 00:56:09;;;;;;;1.90;1.40;;;;;;;6.11;100.00;152931.72;5022537;28;20527;-77
2024/01/18 00:58:36;;;;;;;1.33;1.00;;;;;;;6.12;100.00;152932.97;4993031;28;20432;-77
2024/01/18 01:01:02;;;;;;;1.40;0.87;;;;;;;6.16;100.00;152942.03;5017838;28;20480;-77
2024/01/18 01:03:29;;;;;;;1.50;1.03;;;;;;;6.17;100.00;152944.63;5006372;28;20440;-77
2024/01/18 01:05:55;;;;;;;1.40;1.03;;;;;;;6.17;100.00;152944.63;5009072;28;20432;-77
2024/01/18 01:08:23;;;;;;;2.60;1.03;;;;;;;6.16;100.00;152942.03;5009036;28;20447;-77
2024/01/18 01:10:50;;;;;;;1.60;1.30;;;;;;;6.20;100.00;152953.63;5013929;28;20907;-77
2024/01/18 01:13:16;;;;;;;1.10;1.00;;;;;;;6.27;100.00;152970.41;5021795;28;20466;-77
2024/01/18 01:15:43;;;;;;;1.30;0.97;;;;;;;6.20;100.00;152952.31;5021372;28;20670;-77
2024/01/18 01:18:10;;;;;;;1.17;0.70;;;;;;;6.14;100.00;152939.44;4999393;28;20444;-77
2024/01/18 01:20:36;;;;;;;1.50;1.20;;;;;;;6.19;100.00;152949.78;5001182;28;20905;-77
2024/01/18 01:23:03;;;;;;;1.87;1.30;;;;;;;6.27;100.00;152970.41;5013164;28;20455;-77
2024/01/18 01:25:31;;;;;;;1.70;1.30;;;;;;;6.30;100.00;152979.41;5017813;28;20460;-77
2024/01/18 01:27:58;;;;;;;1.63;1.00;;;;;;;6.26;100.00;152967.81;5004269;28;21021;-77
2024/01/18 01:30:24;;;;;;;1.90;1.37;;;;;;;6.25;100.00;152966.53;5006273;28;20815;-77
2024/01/18 01:32:51;;;;;;;1.40;0.90;;;;;;;6.27;100.00;152970.41;5022053;28;20503;-77
2024/01/18 01:35:17;;;;;;;1.70;1.40;;;;;;;6.30;100.00;152979.41;4978286;28;20457;-77
2024/01/18 01:37:44;;;;;;;1.17;0.90;;;;;;;6.29;100.00;152975.56;5008817;28;20727;-77
2024/01/18 01:40:10;;;;;;;1.53;1.07;;;;;;;6.22;100.00;152957.53;5001106;28;20822;-77
2024/01/18 01:42:38;;;;;;;1.67;1.30;;;;;;;6.25;100.00;152965.28;5019872;28;20490;-78
2024/01/18 01:45:06;;;;;;;2.03;1.27;;;;;;;6.17;100.00;152944.63;5017793;28;20448;-77
2024/01/18 01:47:32;;;;;;;1.37;1.10;;;;;;;6.14;100.00;152939.44;5001768;28;20857;-77
2024/01/18 01:49:59;;;;;;;1.40;1.20;;;;;;;6.21;100.00;152956.22;5011483;28;20892;-77
2024/01/18 01:52:27;;;;;;;1.40;0.90;;;;;;;6.39;100.00;153001.38;5017741;28;20459;-77
2024/01/18 01:54:54;;;;;;;1.77;1.17;;;;;;;6.33;100.00;152987.16;4993530;28;20447;-77
2024/01/18 01:57:21;;;;;;;1.90;1.00;;;;;;;6.35;100.00;152991.06;5001359;28;20522;-77
2024/01/18 01:59:50;;;;;;;1.57;1.17;;;;;;;6.36;100.00;152994.91;4988611;28;20501;-77
2024/01/18 02:02:17;;;;;;;1.50;1.23;;;;;;;6.29;100.00;152975.56;5003783;28;20471;-77
2024/01/18 02:04:44;;;;;;;1.80;1.23;;;;;;;6.36;100.00;152993.63;5008360;28;20820;-76
2024/01/18 02:07:12;;;;;;;1.70;1.17;;;;;;;6.31;100.00;152980.72;5020853;28;20470;-76
2024/01/18 02:09:39;;;;;;;1.40;1.10;;;;;;;6.28;100.00;152972.97;5008541;28;20493;-77
2024/01/18 02:12:06;;;;;;;1.50;1.10;;;;;;;6.35;100.00;152991.06;5020734;28;20439;-76
2024/01/18 02:14:33;;;;;;;1.30;1.20;;;;;;;6.30;100.00;152979.41;5016555;28;20546;-77
2024/01/18 02:17:03;;;;;;;1.40;0.97;;;;;;;6.31;100.00;152980.72;5021851;28;20537;-77
2024/01/18 02:19:30;;;;;;;1.93;1.30;;;;;;;6.26;100.00;152969.13;5017008;28;20931;-77
2024/01/18 02:21:56;;;;;;;2.57;1.50;;;;;;;6.31;100.00;152982.03;5022008;28;20463;-77
2024/01/18 02:24:30;;;;;;;1.60;1.10;;;;;;;6.32;100.00;152983.31;5018539;28;20997;-77
2024/01/18 02:26:58;;;;;;;2.83;1.10;;;;;;;6.35;100.00;152991.06;4984041;28;20436;-77
2024/01/18 02:29:25;;;;;;;2.27;1.10;;;;;;;6.44;100.00;153014.28;5019608;28;20833;-77
2024/01/18 02:31:51;;;;;;;1.63;1.10;;;;;;;6.47;100.00;153022.00;5022167;28;20473;-77
2024/01/18 02:34:18;;;;;;;1.50;1.00;;;;;;;6.49;100.00;153027.16;5006176;28;20463;-77
2024/01/18 02:36:45;;;;;;;1.70;1.33;;;;;;;6.43;100.00;153011.72;5009366;28;20467;-77
2024/01/18 02:39:12;;;;;;;2.33;1.47;;;;;;;6.41;100.00;153007.81;5024114;28;20463;-76
2024/01/18 02:41:40;;;;;;;2.60;1.30;;;;;;;6.44;100.00;153015.56;5021820;28;20831;-77
2024/01/18 02:44:08;;;;;;;3.30;1.37;;;;;;;6.44;100.00;153014.28;5004723;28;20851;-77
2024/01/18 02:46:35;;;;;;;1.83;1.47;;;;;;;6.49;100.00;153027.16;5018180;28;20466;-77
2024/01/18 02:49:02;;;;;;;1.30;0.90;;;;;;;6.47;100.00;153022.00;5003590;28;20506;-77
2024/01/18 02:51:28;;;;;;;1.70;1.07;;;;;;;6.48;100.00;153024.63;5002586;28;20598;-77
2024/01/18 02:53:55;;;;;;;2.60;1.10;;;;;;;6.46;100.00;153019.47;5019684;28;20862;-77
2024/01/18 02:56:22;;;;;;;1.67;1.00;;;;;;;6.43;100.00;153011.72;5020209;28;20462;-77
2024/01/18 02:58:48;;;;;;;1.80;1.10;;;;;;;6.39;100.00;153002.66;5019628;28;20448;-76
2024/01/18 03:01:16;;;;;;;1.50;1.00;;;;;;;6.40;100.00;153003.97;5004503;28;20479;-77
2024/01/18 03:03:42;;;;;;;2.50;1.20;;;;;;;6.42;100.00;153009.13;5020350;28;20456;-77
2024/01/18 03:06:09;;;;;;;3.20;1.50;;;;;;;6.44;100.00;153014.28;5014914;28;20455;-77
2024/01/18 03:08:36;;;;;;;1.60;1.30;;;;;;;6.43;100.00;153013.03;5019935;28;20451;-77
2024/01/18 03:11:02;;;;;;;1.43;1.10;;;;;;;6.42;100.00;153010.41;5022252;28;20440;-77
2024/01/18 03:13:29;;;;;;;1.90;1.20;;;;;;;6.38;100.00;152998.81;5006287;28;20466;-77
2024/01/18 03:15:55;;;;;;;1.90;1.20;;;;;;;6.36;100.00;152993.63;5005592;28;20784;-77
2024/01/18 03:18:23;;;;;;;1.47;1.10;;;;;;;6.39;100.00;153002.66;5005466;28;20457;-77
2024/01/18 03:20:50;;;;;;;3.37;1.30;;;;;;;6.44;100.00;153015.56;5007768;28;20530;-77
2024/01/18 03:23:16;;;;;;;1.37;1.27;;;;;;;6.55;100.00;153042.66;5001415;28;20851;-77
2024/01/18 03:25:43;;;;;;;1.73;1.20;;;;;;;6.53;100.00;153037.50;5018136;28;20447;-77
2024/01/18 03:28:09;;;;;;;2.17;1.40;;;;;;;6.50;100.00;153029.75;5010757;28;20832;-77
2024/01/18 03:30:36;;;;;;;2.57;0.97;;;;;;;6.54;100.00;153040.13;5023919;28;20535;-77
2024/01/18 03:33:02;;;;;;;1.50;1.10;;;;;;;6.52;100.00;153034.91;5005670;28;20455;-77
2024/01/18 03:35:30;;;;;;;2.30;1.33;;;;;;;6.53;100.00;153037.50;5014694;28;20459;-77
2024/01/18 03:37:57;;;;;;;2.30;1.30;;;;;;;6.57;100.00;153049.13;5025912;28;20715;-77
2024/01/18 03:40:23;;;;;;;1.77;1.27;;;;;;;6.55;100.00;153042.66;5024072;28;20482;-77
2024/01/18 03:42:50;;;;;;;1.73;1.23;;;;;;;6.57;100.00;153047.81;5021653;28;20478;-77
2024/01/18 03:45:16;;;;;;;2.50;1.00;;;;;;;6.56;100.00;153045.25;5024496;28;20447;-77
2024/01/18 03:47:43;;;;;;;2.00;1.20;;;;;;;6.63;100.00;153063.31;5020686;28;20466;-77
2024/01/18 03:50:10;;;;;;;1.43;0.90;;;;;;;6.61;100.00;153058.16;5016702;28;20865;-77
2024/01/18 03:52:38;;;;;;;1.83;1.00;;;;;;;6.64;100.00;153067.22;5022794;28;20452;-77
2024/01/18 03:55:06;;;;;;;1.70;0.93;;;;;;;6.62;100.00;153062.03;5025445;28;20443;-77
2024/01/18 03:57:32;;;;;;;1.83;1.13;;;;;;;6.62;100.00;153060.72;5007423;28;21177;-77
2024/01/18 03:59:59;;;;;;;1.30;1.10;;;;;;;6.66;100.00;153071.06;5018256;28;20467;-77
2024/01/18 04:02:25;;;;;;;1.73;1.33;;;;;;;6.62;100.00;153062.03;5006413;28;20451;-77
2024/01/18 04:04:53;;;;;;;1.53;1.37;;;;;;;6.58;100.00;153051.72;5023023;28;20436;-77
2024/01/18 04:07:19;;;;;;;2.00;1.43;;;;;;;6.58;100.00;153050.41;5022446;28;20920;-76
2024/01/18 04:09:47;;;;;;;2.30;1.23;;;;;;;6.59;100.00;153053.00;5020204;28;20465;-77
2024/01/18 04:12:13;;;;;;;1.87;1.20;;;;;;;6.55;100.00;153042.66;5021199;28;20485;-77
2024/01/18 04:14:43;;;;;;;1.70;1.43;;;;;;;6.54;100.00;153041.38;5021059;28;20455;-77
2024/01/18 04:17:11;;;;;;;2.97;1.30;;;;;;;6.63;100.00;153063.31;5021428;28;20553;-77
2024/01/18 04:19:38;;;;;;;1.67;1.20;;;;;;;6.68;100.00;153076.22;5017579;28;20502;-77
2024/01/18 04:22:04;;;;;;;3.27;1.20;;;;;;;6.70;100.00;153082.66;4985160;28;20464;-77
2024/01/18 04:24:31;;;;;;;2.97;1.63;;;;;;;6.70;100.00;153081.38;5002825;28;20652;-77
2024/01/18 04:26:59;;;;;;;3.27;1.30;;;;;;;6.68;100.00;153076.22;5022021;28;20460;-77
2024/01/18 04:29:25;;;;;;;1.60;1.10;;;;;;;6.64;100.00;153065.91;5025918;28;20509;-76
2024/01/18 04:31:52;;;;;;;1.90;1.33;;;;;;;6.66;100.00;153072.38;5007033;28;20956;-77
2024/01/18 04:34:19;;;;;;;1.80;1.13;;;;;;;6.68;100.00;153076.22;5017338;28;20998;-77
2024/01/18 04:36:45;;;;;;;2.17;1.10;;;;;;;6.63;100.00;153064.63;5006758;28;20507;-77
2024/01/18 04:39:12;;;;;;;1.80;1.30;;;;;;;6.61;100.00;153058.16;5004886;28;20452;-77
2024/01/18 04:41:38;;;;;;;2.30;1.20;;;;;;;6.58;100.00;153050.41;5024059;28;20473;-77
2024/01/18 04:44:06;;;;;;;2.50;1.43;;;;;;;6.62;100.00;153060.72;5003044;28;20455;-77
2024/01/18 04:46:32;;;;;;;4.70;1.90;;;;;;;6.65;100.00;153068.47;5022920;28;20446;-77
2024/01/18 04:48:58;;;;;;;1.83;1.20;;;;;;;6.65;100.00;153068.47;5021333;28;20444;-77
2024/01/18 04:51:25;;;;;;;1.77;1.43;;;;;;;6.67;100.00;153074.91;5004588;28;20567;-77
2024/01/18 04:53:51;;;;;;;2.80;1.73;;;;;;;6.65;100.00;153068.47;5004738;28;20462;-77
2024/01/18 04:56:18;;;;;;;1.70;1.43;;;;;;;6.69;100.00;153078.81;5019323;28;20804;-77
2024/01/18 04:58:44;;;;;;;3.53;1.63;;;;;;;6.66;100.00;153071.06;5006852;28;20870;-77
2024/01/18 05:01:12;;;;;;;3.60;1.77;;;;;;;6.67;100.00;153073.66;5004783;28;21049;-77
2024/01/18 05:03:38;;;;;;;2.40;1.23;;;;;;;6.70;100.00;153082.66;5002803;28;20471;-77
2024/01/18 05:06:08;;;;;;;1.70;1.10;;;;;;;6.74;100.00;153091.72;5004294;28;20545;-77
2024/01/18 05:08:35;;;;;;;2.10;1.70;;;;;;;6.77;100.00;153098.19;5010282;28;20455;-77
2024/01/18 05:11:02;;;;;;;2.10;1.20;;;;;;;6.72;100.00;153086.56;5023796;28;20444;-77
2024/01/18 05:13:28;;;;;;;5.40;2.27;;;;;;;6.73;100.00;153089.13;5005150;28;20464;-77
2024/01/18 05:15:55;;;;;;;2.80;2.10;;;;;;;6.76;100.00;153096.88;5020138;28;20456;-77
2024/01/18 05:18:23;;;;;;;4.77;1.80;;;;;;;6.83;100.00;153114.94;5008303;28;20993;-77
2024/01/18 05:20:49;;;;;;;3.57;1.77;;;;;;;6.82;100.00;153112.38;5021349;28;20552;-77
2024/01/18 05:23:16;;;;;;;1.60;1.10;;;;;;;6.80;100.00;153107.22;5024854;28;20459;-77
2024/01/18 05:25:43;;;;;;;1.60;1.37;;;;;;;6.77;100.00;153098.19;5008984;28;20459;-77
2024/01/18 05:28:11;;;;;;;2.77;1.20;;;;;;;6.79;100.00;153104.63;5010172;28;20466;-76
2024/01/18 05:30:38;;;;;;;1.97;1.57;;;;;;;6.77;100.00;153099.47;5023236;28;20462;-76
2024/01/18 05:33:05;;;;;;;1.40;1.30;;;;;;;6.81;100.00;153109.78;5010729;28;20455;-77
2024/01/18 05:35:33;;;;;;;2.43;1.33;;;;;;;6.85;100.00;153118.81;5008639;28;20479;-77
2024/01/18 05:37:59;;;;;;;4.67;1.47;;;;;;;6.86;100.00;153122.69;5021157;28;20478;-76
2024/01/18 05:40:26;;;;;;;2.20;1.20;;;;;;;6.86;100.00;153122.69;5021907;28;20893;-77
2024/01/18 05:42:53;;;;;;;4.63;1.73;;;;;;;6.84;100.00;153117.53;5025496;28;20499;-77
2024/01/18 05:45:19;;;;;;;1.90;1.13;;;;;;;6.83;100.00;153114.94;5010275;28;20438;-76
2024/01/18 05:47:46;;;;;;;2.27;1.50;;;;;;;6.83;100.00;153114.94;5022905;28;20459;-77
2024/01/18 05:50:12;;;;;;;2.60;1.40;;;;;;;6.83;100.00;153114.94;5019301;28;20456;-77
2024/01/18 05:52:40;;;;;;;2.00;1.10;;;;;;;6.82;100.00;153112.38;5013617;28;20510;-77
2024/01/18 05:55:07;;;;;;;2.70;1.40;;;;;;;6.85;100.00;153120.13;5010831;28;20506;-77
2024/01/18 05:57:34;;;;;;;2.27;1.50;;;;;;;6.83;100.00;153114.94;5021793;28;20864;-76
2024/01/18 06:00:00;;;;;;;2.30;1.30;;;;;;;6.82;100.00;153111.06;5023418;28;20843;-77
2024/01/18 06:02:27;;;;;;;2.33;1.57;;;;;;;6.81;100.00;153109.78;5018936;28;20490;-77
2024/01/18 06:04:53;;;;;;;1.70;1.17;;;;;;;6.78;100.00;153100.78;5023105;28;20444;-77
2024/01/18 06:07:20;;;;;;;2.33;1.40;;;;;;;6.75;100.00;153094.31;5001237;28;20820;-76
2024/01/18 06:09:48;;;;;;;2.13;1.03;;;;;;;6.77;100.00;153098.19;5017348;28;20452;-77
2024/01/18 06:12:14;;;;;;;15.87;8.17;;;;;;;6.76;100.00;153096.88;5017800;28;20481;-77
2024/01/18 06:14:41;;;;;;;16.00;9.23;;;;;;;6.58;100.00;153050.41;4999046;28;20464;-77
2024/01/18 06:17:07;;;;;;;15.37;9.27;;;;;;;6.33;100.00;152987.16;5018396;28;20457;-77
2024/01/18 06:19:36;;;;;;;11.20;8.53;;;;;;;6.13;100.00;152936.88;4996340;28;20453;-77
2024/01/18 06:22:02;;;;;;;9.43;8.43;;;;;;;6.01;100.00;152905.88;5019522;28;20808;-76
2024/01/18 06:24:31;;;;;;;8.57;6.87;;;;;;;5.97;100.00;152894.28;5001857;28;20864;-77
2024/01/18 06:26:59;;;;;;;9.67;7.47;;;;;;;5.78;100.00;152846.53;4999800;28;20459;-76
2024/01/18 06:29:29;;;;;;;8.00;6.97;;;;;;;5.65;100.00;152813.00;5018536;28;20452;-76
2024/01/18 06:31:56;;;;;;;9.30;6.50;;;;;;;5.48;100.00;152769.19;5000533;28;21086;-76
2024/01/18 06:34:23;;;;;;;5.70;5.13;;;;;;;5.38;100.00;152744.66;5018215;28;20449;-76
2024/01/18 06:36:51;;;;;;;7.30;5.97;;;;;;;5.11;100.00;152675.03;5001087;28;20467;-76
2024/01/18 06:39:17;;;;;;;5.30;4.13;;;;;;;4.72;100.00;152574.50;4997506;28;20550;-76
2024/01/18 06:41:44;;;;;;;6.33;4.60;;;;;;;4.38;100.00;152488.22;5015050;28;20504;-76
2024/01/18 06:44:12;;;;;;;5.03;3.97;;;;;;;4.26;100.00;152457.31;5016317;28;20463;-76
2024/01/18 06:46:39;;;;;;;5.27;4.37;;;;;;;4.16;100.00;152431.53;5017099;28;20448;-75
2024/01/18 06:49:05;;;;;;;3.97;3.57;;;;;;;4.09;100.00;152413.50;5015513;28;20463;-76
2024/01/18 06:51:32;;;;;;;4.67;3.33;;;;;;;4.10;100.00;152417.34;4998366;28;20501;-76
2024/01/18 06:53:58;;;;;;;5.27;3.83;;;;;;;4.01;100.00;152392.91;5015396;28;20464;-78
2024/01/18 06:56:25;;;;;;;4.10;3.50;;;;;;;3.99;100.00;152387.75;4999292;28;20539;-76
2024/01/18 06:58:51;;;;;;;4.43;3.40;;;;;;;3.93;100.00;152372.28;5015008;28;20559;-78
2024/01/18 07:01:19;;;;;;;6.03;3.47;;;;;;;3.84;100.00;152350.41;5002918;28;21005;-78
2024/01/18 07:03:46;;;;;;;10.40;3.47;;;;;;;3.82;100.00;152343.97;5013329;28;21100;-78
2024/01/18 07:06:12;;;;;;;4.30;3.37;;;;;;;3.72;100.00;152319.50;4985018;28;20809;-78
2024/01/18 07:08:39;;;;;;;4.90;3.00;;;;;;;3.64;100.00;152300.22;5014661;28;20499;-78
2024/01/18 07:11:06;;;;;;;3.17;2.83;;;;;;;3.58;100.00;152284.75;5019221;28;20458;-76
2024/01/18 07:13:32;;;;;;;3.87;3.30;;;;;;;3.54;100.00;152274.47;5014367;28;20905;-78
2024/01/18 07:15:59;;;;;;;3.97;2.80;;;;;;;3.52;100.00;152269.28;5000104;28;20459;-78
2024/01/18 07:18:27;;;;;;;3.30;2.70;;;;;;;3.46;100.00;152253.88;5015746;28;20563;-78
2024/01/18 07:20:53;;;;;;;3.70;2.90;;;;;;;3.45;100.00;152251.28;5019031;28;20558;-78
2024/01/18 07:23:20;;;;;;;4.87;3.00;;;;;;;3.44;100.00;152247.44;5016463;28;20894;-77
2024/01/18 07:25:47;;;;;;;4.50;2.70;;;;;;;3.39;100.00;152234.59;5016548;28;20501;-78
2024/01/18 07:28:14;;;;;;;10.80;3.40;;;;;;;3.36;100.00;152228.09;5017385;28;20460;-78
2024/01/18 07:30:40;;;;;;;2.97;2.47;;;;;;;3.31;100.00;152215.22;5017593;28;21330;-78
2024/01/18 07:33:07;;;;;;;4.30;2.97;;;;;;;3.33;100.00;152219.13;4998339;28;20466;-78
2024/01/18 07:35:35;;;;;;;4.53;2.67;;;;;;;3.29;100.00;152210.09;5015982;28;20455;-79
2024/01/18 07:38:01;;;;;;;6.77;3.13;;;;;;;3.26;100.00;152201.06;5014015;28;20815;-78
2024/01/18 07:40:28;;;;;;;4.67;3.20;;;;;;;3.25;100.00;152198.53;5013235;28;20979;-78
2024/01/18 07:42:54;;;;;;;4.10;3.00;;;;;;;3.21;100.00;152189.50;5013746;28;21003;-78
2024/01/18 07:45:21;;;;;;;3.53;3.07;;;;;;;3.19;100.00;152183.06;5015256;28;20491;-78
2024/01/18 07:47:47;;;;;;;3.60;2.60;;;;;;;3.19;100.00;152184.38;5000721;28;20582;-78
2024/01/18 07:50:14;;;;;;;4.27;3.57;;;;;;;3.17;100.00;152177.94;5022317;28;20820;-78
2024/01/18 07:52:42;;;;;;;3.13;2.83;;;;;;;3.21;100.00;152188.22;5003637;28;22084;-78
2024/01/18 07:55:09;;;;;;;4.40;3.33;;;;;;;3.17;100.00;152179.22;5016879;28;20514;-78
2024/01/18 07:57:36;;;;;;;3.83;3.43;;;;;;;3.18;100.00;152181.78;5006710;28;20456;-79
2024/01/18 08:00:04;;;;;;;3.80;3.10;;;;;;;3.16;100.00;152175.34;5019642;28;20803;-78
2024/01/18 08:02:31;;;;;;;4.00;3.57;;;;;;;3.10;100.00;152161.19;5002515;28;20662;-79
2024/01/18 08:04:58;;;;;;;4.17;3.77;;;;;;;3.01;100.00;152139.34;5020219;28;20452;-79
2024/01/18 08:07:24;;;;;;;4.33;3.40;;;;;;;3.03;100.00;152143.19;5000625;28;21698;-78
2024/01/18 08:09:52;;;;;;;4.83;3.40;;;;;;;3.06;100.00;152150.91;5019094;28;20481;-78
2024/01/18 08:12:19;;;;;;;3.43;3.00;;;;;;;3.04;100.00;152145.78;5000282;28;20468;-78
2024/01/18 08:14:45;;;;;;;3.70;3.17;;;;;;;3.05;100.00;152149.63;5019194;28;20456;-78
2024/01/18 08:17:12;;;;;;;3.47;3.00;;;;;;;3.04;100.00;152147.03;4985198;28;20468;-78
2024/01/18 08:19:39;;;;;;;4.70;4.20;;;;;;;3.04;100.00;152147.03;5001019;28;20782;-79
2024/01/18 08:22:07;;;;;;;6.27;3.90;;;;;;;3.00;100.00;152136.75;5015794;28;20468;-78
2024/01/18 08:24:33;;;;;;;5.70;4.07;;;;;;;2.94;100.00;152120.00;5019731;28;20536;-78
2024/01/18 08:27:01;;;;;;;4.50;3.57;;;;;;;3.01;100.00;152138.06;5018041;28;20455;-78
2024/01/18 08:29:28;;;;;;;4.00;3.60;;;;;;;3.06;100.00;152150.91;5023897;28;20463;-78
2024/01/18 08:31:55;;;;;;;6.00;3.90;;;;;;;3.05;100.00;152149.63;5021704;28;20452;-78
2024/01/18 08:34:21;;;;;;;3.27;2.97;;;;;;;3.01;100.00;152138.06;5018802;28;20464;-78
2024/01/18 08:36:48;;;;;;;5.13;4.03;;;;;;;2.98;100.00;152130.31;5018839;28;20454;-78
2024/01/18 08:39:15;;;;;;;4.10;3.33;;;;;;;2.98;100.00;152131.63;5021062;28;20881;-78
2024/01/18 08:41:41;;;;;;;4.50;2.90;;;;;;;2.92;100.00;152114.88;5000973;28;21194;-79
2024/01/18 08:44:09;;;;;;;4.00;3.40;;;;;;;2.83;100.00;152091.75;4998052;28;20464;-78
2024/01/18 08:46:36;;;;;;;7.13;4.07;;;;;;;2.76;100.00;152073.72;5001081;28;20463;-78
2024/01/18 08:49:02;;;;;;;5.47;4.30;;;;;;;2.85;100.00;152096.88;5017379;28;21139;-78
2024/01/18 08:51:29;;;;;;;5.20;3.40;;;;;;;2.74;100.00;152069.88;5018182;28;20452;-79
2024/01/18 08:53:56;;;;;;;5.30;3.80;;;;;;;2.67;100.00;152050.56;4999920;28;20449;-78
2024/01/18 08:56:22;;;;;;;8.70;4.07;;;;;;;2.68;100.00;152054.41;5001547;28;20452;-78
2024/01/18 08:58:49;;;;;;;5.43;3.87;;;;;;;2.60;100.00;152032.53;5016070;28;20984;-77
2024/01/18 09:01:17;;;;;;;4.50;3.63;;;;;;;2.63;100.00;152040.25;5018198;28;20460;-78
2024/01/18 09:03:43;;;;;;;5.53;4.23;;;;;;;2.59;100.00;152030.00;5018019;28;20860;-78
2024/01/18 09:06:10;;;;;;;4.37;3.70;;;;;;;2.50;100.00;152006.84;5017351;28;20464;-78
2024/01/18 09:08:36;;;;;;;6.13;4.00;;;;;;;2.49;100.00;152004.28;4999445;28;20456;-78
2024/01/18 09:11:04;;;;;;;4.03;3.60;;;;;;;2.43;100.00;151991.44;5001306;28;20459;-78
2024/01/18 09:13:30;;;;;;;4.17;3.40;;;;;;;2.34;100.00;151966.97;4982082;28;20441;-78
2024/01/18 09:15:57;;;;;;;3.40;2.80;;;;;;;2.42;100.00;151987.53;5019317;28;20458;-78
2024/01/18 09:18:24;;;;;;;4.83;3.57;;;;;;;2.41;100.00;151986.25;5018782;28;20460;-79
2024/01/18 09:20:51;;;;;;;4.30;3.63;;;;;;;2.38;100.00;151978.53;5015670;28;20446;-79
2024/01/18 09:23:18;;;;;;;5.43;3.40;;;;;;;2.28;100.00;151952.81;5016060;28;20483;-78
2024/01/18 09:25:45;;;;;;;4.47;3.10;;;;;;;2.28;100.00;151951.53;5017051;28;20463;-78
2024/01/18 09:28:11;;;;;;;4.00;3.20;;;;;;;2.10;100.00;151906.53;4998917;28;20463;-78
2024/01/18 09:30:38;;;;;;;4.50;3.73;;;;;;;2.08;100.00;151901.41;5017969;28;20456;-78
2024/01/18 09:33:05;;;;;;;5.33;3.50;;;;;;;2.01;100.00;151883.44;5017342;28;20523;-78
2024/01/18 09:35:33;;;;;;;3.77;2.60;;;;;;;1.95;100.00;151868.00;5016645;28;20452;-78
2024/01/18 09:38:00;;;;;;;3.30;2.70;;;;;;;1.91;100.00;151857.69;4997631;28;20796;-77
2024/01/18 09:40:28;;;;;;;3.90;2.60;;;;;;;1.84;100.00;151839.72;4998184;28;20459;-78
2024/01/18 09:42:57;;;;;;;2.83;2.27;;;;;;;1.79;100.00;151826.84;5017198;28;20492;-77
2024/01/18 09:45:26;;;;;;;2.23;1.80;;;;;;;1.69;100.00;151802.47;5018613;28;20436;-78
2024/01/18 09:47:53;;;;;;;3.43;2.60;;;;;;;1.64;100.00;151789.56;5000871;28;20453;-78
2024/01/18 09:50:21;;;;;;;2.53;1.80;;;;;;;1.59;100.00;151776.72;5000025;28;20460;-78
2024/01/18 09:52:50;;;;;;;2.10;1.70;;;;;;;1.52;100.00;151757.44;5018330;28;20455;-78
2024/01/18 09:55:19;;;;;;;3.40;2.00;;;;;;;1.55;100.00;151766.47;4998434;28;20457;-78
2024/01/18 09:57:48;;;;;;;2.40;1.70;;;;;;;1.51;100.00;151756.16;5015876;28;20866;-78
2024/01/18 10:00:16;;;;;;;1.70;1.37;;;;;;;1.44;100.00;151736.88;5017568;28;20447;-77
2024/01/18 10:02:43;;;;;;;2.30;2.10;;;;;;;1.49;100.00;151751.03;4999853;28;20484;-78
2024/01/18 10:05:12;;;;;;;2.53;1.80;;;;;;;1.46;100.00;151742.00;5017154;28;20459;-78
2024/01/18 10:07:39;;;;;;;2.27;1.60;;;;;;;1.41;100.00;151729.16;5018316;28;20458;-78
2024/01/18 10:10:14;;;;;;;3.10;2.43;;;;;;;1.36;100.00;151716.31;5000509;28;20522;-78
2024/01/18 10:12:42;;;;;;;3.67;2.77;;;;;;;1.40;100.00;151726.63;5016354;28;20546;-78
2024/01/18 10:15:10;;;;;;;5.27;3.67;;;;;;;1.46;100.00;151742.00;4999955;28;20448;-78
2024/01/18 10:17:38;;;;;;;4.40;3.27;;;;;;;1.39;100.00;151724.03;5016047;28;20495;-78
2024/01/18 10:20:13;;;;;;;3.80;2.90;;;;;;;1.34;100.00;151712.50;4996164;28;20998;-78
2024/01/18 10:22:41;;;;;;;2.80;2.10;;;;;;;1.40;100.00;151726.63;5004706;28;20545;-78
2024/01/18 10:25:12;;;;;;;2.90;2.40;;;;;;;1.38;100.00;151721.50;5018348;28;20451;-78
2024/01/18 10:27:41;;;;;;;2.97;2.17;;;;;;;1.35;100.00;151713.78;5015571;28;20462;-78
2024/01/18 10:30:10;;;;;;;3.40;2.30;;;;;;;1.24;100.00;151686.81;4998817;28;20455;-78
2024/01/18 10:32:38;;;;;;;3.20;2.47;;;;;;;1.20;100.00;151676.50;5015742;28;20451;-78
2024/01/18 10:35:08;;;;;;;3.27;2.00;;;;;;;1.18;100.00;151672.69;5018953;28;20460;-78
2024/01/18 10:37:39;;;;;;;3.70;2.30;;;;;;;1.21;100.00;151680.41;5019158;28;20456;-78
2024/01/18 10:40:07;;;;;;;2.83;2.00;;;;;;;1.20;100.00;151677.81;5019286;28;20448;-78
2024/01/18 10:42:35;;;;;;;2.70;2.30;;;;;;;1.10;100.00;151650.84;5016135;28;20494;-78
2024/01/18 10:45:03;;;;;;;2.33;1.77;;;;;;;1.07;100.00;151644.41;5019417;28;20459;-78
2024/01/18 10:47:32;;;;;;;1.97;1.50;;;;;;;1.10;100.00;151650.84;5001107;28;20461;-78
2024/01/18 10:50:00;;;;;;;2.20;1.70;;;;;;;1.01;100.00;151628.97;5016634;28;20448;-78
2024/01/18 10:52:27;;;;;;;2.63;1.60;;;;;;;0.98;100.00;151621.28;5015309;28;20444;-78
2024/01/18 10:54:54;;;;;;;2.53;1.70;;;;;;;0.94;100.00;151611.03;5017988;28;20452;-79
2024/01/18 10:57:21;;;;;;;3.03;2.17;;;;;;;1.07;100.00;151644.41;5000768;28;21047;-78
2024/01/18 10:59:51;;;;;;;3.60;2.50;;;;;;;1.05;100.00;151639.28;4998476;28;20456;-79
2024/01/18 11:02:19;;;;;;;3.03;2.20;;;;;;;1.11;100.00;151654.66;5015569;28;20458;-78
2024/01/18 11:04:47;;;;;;;3.47;2.30;;;;;;;1.14;100.00;151662.38;5014874;28;20451;-79
2024/01/18 11:07:14;;;;;;;4.43;2.30;;;;;;;1.15;100.00;151663.66;5018808;28;20490;-79
2024/01/18 11:09:40;;;;;;;3.57;2.37;;;;;;;1.08;100.00;151647.00;4997694;28;20478;-78
2024/01/18 11:12:08;;;;;;;4.20;3.10;;;;;;;0.97;100.00;151617.44;5014648;28;20456;-78
2024/01/18 11:14:34;;;;;;;3.30;2.90;;;;;;;0.86;100.00;151590.47;5015190;28;20464;-79
2024/01/18 11:17:12;;;;;;;4.80;3.60;;;;;;;0.88;100.00;151595.59;5015579;28;20456;-78
2024/01/18 11:19:42;;;;;;;4.97;2.70;;;;;;;0.94;100.00;151609.72;5013826;28;20557;-78
2024/01/18 11:22:11;;;;;;;3.43;2.73;;;;;;;0.96;100.00;151616.16;4982394;28;20460;-78
2024/01/18 11:24:38;;;;;;;3.97;2.97;;;;;;;1.00;100.00;151626.44;5018742;28;20884;-78